createdAt,value
2019-04-07T00:01:04.626Z,90.10
2019-04-07T00:06:08.552Z,90.10
2019-04-07T00:11:12.920Z,90.20
2019-04-07T00:16:16.989Z,90.30
2019-04-07T00:21:20.815Z,90.40
2019-04-07T00:26:24.908Z,92.10
2019-04-07T00:31:28.935Z,91.40
2019-04-07T00:36:32.930Z,91.40
2019-04-07T00:41:37.548Z,90.60
2019-04-07T00:46:42.255Z,90.80
2019-04-07T00:51:46.418Z,91.00
2019-04-07T00:56:51.138Z,90.40
2019-04-07T01:01:54.593Z,90.20
2019-04-07T01:07:00.239Z,90.50
2019-04-07T01:12:04.984Z,90.80
2019-04-07T01:17:08.423Z,90.40
2019-04-07T01:22:13.183Z,90.30
2019-04-07T01:27:18.244Z,90.40
2019-04-07T01:32:22.474Z,90.30
2019-04-07T01:37:26.544Z,90.20
2019-04-07T01:42:36.738Z,90.20
2019-04-07T01:47:57.262Z,91.10
2019-04-07T01:53:09.161Z,93.80
2019-04-07T01:58:31.683Z,92.90
2019-04-07T02:03:54.935Z,91.50
2019-04-07T02:09:23.887Z,92.50
2019-04-07T02:14:41.043Z,91.30
2019-04-07T02:19:57.059Z,91.20
2019-04-07T02:25:30.099Z,90.90
2019-04-07T02:30:52.428Z,90.80
2019-04-07T02:36:29.167Z,90.70
2019-04-07T02:41:56.979Z,91.10
2019-04-07T02:47:15.929Z,91.20
2019-04-07T02:52:37.499Z,91.60
2019-04-07T02:57:48.779Z,91.30
2019-04-07T03:03:31.134Z,91.80
2019-04-07T03:08:59.890Z,91.20
2019-04-07T03:14:19.694Z,92.20
2019-04-07T03:19:52.271Z,91.20
2019-04-07T03:25:11.125Z,91.30
2019-04-07T03:30:27.477Z,91.00
2019-04-07T03:35:40.291Z,90.80
2019-04-07T03:40:51.633Z,91.00
2019-04-07T03:46:01.573Z,91.60
2019-04-07T03:51:24.352Z,91.40
2019-04-07T03:56:54.326Z,90.90
2019-04-07T04:02:19.779Z,91.00
2019-04-07T04:07:36.140Z,91.40
2019-04-07T04:12:46.862Z,91.90
2019-04-07T04:17:51.477Z,92.20
2019-04-07T04:22:54.742Z,92.40
2019-04-07T04:27:59.232Z,92.10
2019-04-07T04:33:02.446Z,92.10
2019-04-07T04:38:06.611Z,92.20
2019-04-07T04:43:10.997Z,91.20
2019-04-07T04:48:15.602Z,91.20
2019-04-07T04:53:19.676Z,91.30
2019-04-07T04:58:23.647Z,91.10
2019-04-07T05:03:27.723Z,91.00
2019-04-07T05:08:32.395Z,91.10
2019-04-07T05:13:36.558Z,91.20
2019-04-07T05:18:41.555Z,91.40
2019-04-07T05:23:46.021Z,92.60
2019-04-07T05:28:49.200Z,93.30
2019-04-07T05:33:53.636Z,91.90
2019-04-07T05:38:58.953Z,92.10
2019-04-07T05:44:03.521Z,92.80
2019-04-07T05:49:07.779Z,91.30
2019-04-07T05:54:12.484Z,90.90
2019-04-07T05:59:16.665Z,90.60
2019-04-07T06:04:21.553Z,89.30
2019-04-07T06:09:26.435Z,88.90
2019-04-07T06:14:30.746Z,87.50
2019-04-07T06:19:40.610Z,86.20
2019-04-07T06:24:40.829Z,83.60
2019-04-07T06:29:45.246Z,82.00
2019-04-07T06:34:50.630Z,81.50
2019-04-07T06:39:54.871Z,79.20
2019-04-07T06:45:00.380Z,77.20
2019-04-07T06:50:21.221Z,75.60
2019-04-07T06:55:56.159Z,72.00
2019-04-07T07:01:30.645Z,68.10
2019-04-07T07:07:00.548Z,65.20
2019-04-07T07:12:30.924Z,69.00
2019-04-07T07:17:51.051Z,64.40
2019-04-07T07:23:04.713Z,61.80
2019-04-07T07:28:11.510Z,59.70
2019-04-07T07:33:15.178Z,59.20
2019-04-07T07:38:19.291Z,59.50
2019-04-07T07:43:24.005Z,58.20
2019-04-07T07:48:28.260Z,56.30
2019-04-07T07:53:32.929Z,53.50
2019-04-07T07:58:37.073Z,52.80
2019-04-07T08:03:41.608Z,52.90
2019-04-07T08:08:47.563Z,54.20
2019-04-07T08:13:52.470Z,53.30
2019-04-07T08:18:59.370Z,50.40
2019-04-07T08:24:02.555Z,52.00
2019-04-07T08:29:07.739Z,51.50
2019-04-07T08:34:13.068Z,49.80
2019-04-07T08:39:22.682Z,49.30
2019-04-07T08:44:25.999Z,48.80
2019-04-07T08:49:32.089Z,48.60
2019-04-07T08:54:35.580Z,48.70
2019-04-07T08:59:41.888Z,48.50
2019-04-07T09:04:49.736Z,47.40
2019-04-07T09:09:50.311Z,49.50
2019-04-07T09:14:55.645Z,48.10
2019-04-07T09:20:24.512Z,45.70
2019-04-07T09:25:46.654Z,45.40
2019-04-07T09:31:05.139Z,44.40
2019-04-07T09:36:27.641Z,44.60
2019-04-07T09:41:43.137Z,42.60
2019-04-07T09:47:06.750Z,43.30
2019-04-07T09:52:36.062Z,44.50
2019-04-07T09:57:52.868Z,44.80
2019-04-07T10:03:11.455Z,43.70
2019-04-07T10:08:28.204Z,43.20
2019-04-07T10:13:57.817Z,43.20
2019-04-07T10:19:13.133Z,42.10
2019-04-07T10:24:39.386Z,45.00
2019-04-07T10:29:55.637Z,42.40
2019-04-07T10:35:17.945Z,43.90
2019-04-07T10:40:44.447Z,43.90
2019-04-07T10:46:13.583Z,45.30
2019-04-07T10:51:36.460Z,44.00
2019-04-07T10:56:47.952Z,44.30
2019-04-07T11:02:15.867Z,44.20
2019-04-07T11:07:47.177Z,44.50
2019-04-07T11:13:14.583Z,43.80
2019-04-07T11:18:41.318Z,44.90
2019-04-07T11:23:56.630Z,44.70
2019-04-07T11:29:13.323Z,43.30
2019-04-07T11:34:36.600Z,43.00
2019-04-07T11:39:59.027Z,43.60
2019-04-07T11:45:25.397Z,43.10
2019-04-07T11:50:50.655Z,42.90
2019-04-07T11:56:10.795Z,43.90
2019-04-07T12:01:31.680Z,45.00
2019-04-07T12:06:46.684Z,43.30
2019-04-07T12:12:03.620Z,44.40
2019-04-07T12:17:30.688Z,45.80
2019-04-07T12:23:09.282Z,45.00
2019-04-07T12:28:28.862Z,48.10
2019-04-07T12:33:45.174Z,45.70
2019-04-07T12:39:09.397Z,45.60
2019-04-07T12:44:21.797Z,48.80
2019-04-07T12:49:44.488Z,47.20
2019-04-07T12:55:03.019Z,45.80
2019-04-07T13:00:51.287Z,46.70
2019-04-07T13:05:59.070Z,46.20
2019-04-07T13:11:31.206Z,49.40
2019-04-07T13:17:00.954Z,47.00
2019-04-07T13:22:19.344Z,48.10
2019-04-07T13:27:45.631Z,47.60
2019-04-07T13:33:00.701Z,47.50
2019-04-07T13:38:23.954Z,47.00
2019-04-07T13:43:37.061Z,48.70
2019-04-07T13:49:01.649Z,48.00
2019-04-07T13:54:16.936Z,49.80
2019-04-07T13:59:44.058Z,46.00
2019-04-07T14:04:56.697Z,46.90
2019-04-07T14:10:10.342Z,47.50
2019-04-07T14:15:33.483Z,44.50
2019-04-07T14:20:49.681Z,44.70
2019-04-07T14:26:15.749Z,46.40
2019-04-07T14:31:53.948Z,44.40
2019-04-07T14:37:12.345Z,45.80
2019-04-07T14:42:38.569Z,47.30
2019-04-07T14:48:01.014Z,48.40
2019-04-07T14:53:22.544Z,49.40
2019-04-07T14:58:47.668Z,49.20
2019-04-07T15:03:50.086Z,49.30
2019-04-07T15:09:16.563Z,48.50
2019-04-07T15:14:21.290Z,48.90
2019-04-07T15:19:25.522Z,50.80
2019-04-07T15:24:29.557Z,49.40
2019-04-07T15:29:36.235Z,50.10
2019-04-07T15:34:42.239Z,50.00
2019-04-07T15:39:45.937Z,50.90
2019-04-07T15:44:50.871Z,49.70
2019-04-07T15:49:57.777Z,50.30
2019-04-07T15:55:02.029Z,49.00
2019-04-07T16:00:05.563Z,48.00
2019-04-07T16:05:10.471Z,48.70
2019-04-07T16:10:15.490Z,48.30
2019-04-07T16:15:19.687Z,49.00
2019-04-07T16:20:26.344Z,49.40
2019-04-07T16:25:30.288Z,49.70
2019-04-07T16:30:34.059Z,49.70
2019-04-07T16:35:39.837Z,51.90
2019-04-07T16:40:44.632Z,51.80
2019-04-07T16:45:48.561Z,52.20
2019-04-07T16:50:55.284Z,54.00
2019-04-07T16:55:59.140Z,55.00
2019-04-07T17:01:03.239Z,54.80
2019-04-07T17:06:07.431Z,55.20
2019-04-07T17:11:11.499Z,55.50
2019-04-07T17:16:20.103Z,55.50
2019-04-07T17:21:22.357Z,54.80
2019-04-07T17:26:27.495Z,55.30
2019-04-07T17:31:32.648Z,55.40
2019-04-07T17:36:39.243Z,53.60
2019-04-07T17:41:43.711Z,53.90
2019-04-07T17:47:18.406Z,52.40
2019-04-07T17:52:51.233Z,52.50
2019-04-07T17:58:17.306Z,51.00
2019-04-07T18:03:43.964Z,51.30
2019-04-07T18:09:07.574Z,51.40
2019-04-07T18:14:28.359Z,52.50
2019-04-07T18:19:50.509Z,52.40
2019-04-07T18:25:06.954Z,53.10
2019-04-07T18:30:39.666Z,54.20
2019-04-07T18:35:54.460Z,55.60
2019-04-07T18:41:17.237Z,57.60
2019-04-07T18:46:27.914Z,58.70
2019-04-07T18:51:47.154Z,60.30
2019-04-07T18:57:10.490Z,61.40
2019-04-07T19:02:28.853Z,62.80
2019-04-07T19:07:41.645Z,64.40
2019-04-07T19:13:09.700Z,65.90
2019-04-07T19:18:27.069Z,66.00
2019-04-07T19:23:38.798Z,67.80
2019-04-07T19:29:12.795Z,67.70
2019-04-07T19:34:42.893Z,67.50
2019-04-07T19:40:16.504Z,68.50
2019-04-07T19:45:39.205Z,69.00
2019-04-07T19:51:03.177Z,68.60
2019-04-07T19:56:25.654Z,70.20
2019-04-07T20:01:48.033Z,70.00
2019-04-07T20:07:10.068Z,70.30
2019-04-07T20:12:20.670Z,71.10
2019-04-07T20:17:56.766Z,71.00
2019-04-07T20:23:08.488Z,71.90
2019-04-07T20:28:20.410Z,72.50
2019-04-07T20:33:32.940Z,71.90
2019-04-07T20:38:42.532Z,72.10
2019-04-07T20:44:11.185Z,73.10
2019-04-07T20:49:50.417Z,72.40
2019-04-07T20:55:13.529Z,72.20
2019-04-07T21:00:56.065Z,73.30
2019-04-07T21:06:10.517Z,74.80
2019-04-07T21:11:24.443Z,75.80
2019-04-07T21:16:46.599Z,75.20
2019-04-07T21:22:06.769Z,75.00
2019-04-07T21:27:19.290Z,75.10
2019-04-07T21:32:42.334Z,76.20
2019-04-07T21:37:58.321Z,77.40
2019-04-07T21:43:40.337Z,77.50
2019-04-07T21:49:00.695Z,77.60
2019-04-07T21:54:22.705Z,77.80
2019-04-07T21:59:36.223Z,77.30
2019-04-07T22:05:00.795Z,77.90
2019-04-07T22:10:07.320Z,78.00
2019-04-07T22:15:14.052Z,78.70
2019-04-07T22:20:20.104Z,80.00
2019-04-07T22:25:36.220Z,80.10
2019-04-07T22:30:44.577Z,81.90
2019-04-07T22:35:49.090Z,79.50
2019-04-07T22:40:54.185Z,79.50
2019-04-07T22:46:07.745Z,79.70
2019-04-07T22:51:09.941Z,80.70
2019-04-07T22:56:10.757Z,81.40
2019-04-07T23:01:14.932Z,81.70
2019-04-07T23:06:19.065Z,79.90
2019-04-07T23:11:23.684Z,79.80
2019-04-07T23:16:28.004Z,79.80
2019-04-07T23:21:32.123Z,80.20
2019-04-07T23:26:36.453Z,81.30
2019-04-07T23:31:40.542Z,81.50
2019-04-07T23:36:45.709Z,81.40
2019-04-07T23:41:51.178Z,86.90
2019-04-07T23:46:55.391Z,83.90
2019-04-07T23:51:59.503Z,81.30
2019-04-07T23:57:03.946Z,81.30
